FAPE

Port Elizabeth Airport

Port Elizabeth, South Africa
METAR FAPE 211300Z 12009KT 080V160 9999 SCT020 OVC028 23/19 Q1018 NOSIG
Observed Flight Rules
Feb-21 @ 13:00 UTC (15 minutes ago) Marginal Visual Flight Rules
Wind Visibility Clouds
120° at 9 knots 10,000+ meters
  • Scattered at 2,000' AGL
  • Overcast at 2,800' AGL
Temperatures Readings
Current 23°C / 73°F
Dewpoint 19°C / 66°F
Humidity 78%
Altimeter 30.06" Hg
Pressure 1018 hPa
Elevation 60
METAR FAPE 211300Z 12009KT 080V160 9999 SCT020 OVC028 23/19 Q1018 NOSIG
Observed Flight Rules
Feb-21 @ 13:00 UTC
(15 minutes ago)
MVFR
Wind Visibility
120° at 9 knots 10,000+ meters
Clouds
  • Scattered at 2,000' AGL
  • Overcast at 2,800' AGL
Temperature Dewpoint
23°C / 73°F 19°C / 66°F
Humidity Altimeter Pressure
78% 30.06" Hg 1018 hPa